Latest Weather Observations for Longerenong

IDV60801

Issued at 9:31 am EDT Wednesday 4 March 2015 (issued every 30 minutes, with the page automatically refreshed every 10 minutes)

About weather observations | Map of weather stations | Latest weather observations for VIC | Other Formats
Station Details ID: 079028 Name: LONGERENONG Lat: -36.67 Lon: 142.30 Height: 133.0 m
Data from the previous 72 hours. | See also: Recent months at Longerenong
Date/Time
EDT
Temp
°C
App
Temp
°C
Dew
Point
Rel
Hum
%
Delta-T
°C
Wind Press
QNH
hPa
Press
MSL
hPa
Rain
since 9 am
mm
Dir
 
Spd
km/h
Gust
km/h
Spd
kts
Gust
kts
04/09:30am 15.4 - - - - SW 15 22 8 12 - - 0.0
04/09:00am 13.9 - - - - SW 11 17 6 9 - - 0.0
04/08:30am 11.8 - - - - W 7 9 4 5 - - 0.0
04/08:00am 10.1 - - - - WSW 9 11 5 6 - - 0.0
04/07:30am 7.6 - - - - WSW 7 9 4 5 - - 0.0
04/07:00am 9.1 - - - - WSW 7 9 4 5 - - 0.0
04/06:30am 8.9 - - - - SW 7 9 4 5 - - 0.0
04/06:00am 9.4 - - - - SW 7 9 4 5 - - 0.0
04/05:30am 9.5 - - - - WSW 7 9 4 5 - - 0.0
04/05:00am 10.5 - - - - SW 11 13 6 7 - - 0.0
04/04:30am 10.9 - - - - SW 11 13 6 7 - - 0.0
04/04:00am 11.3 - - - - SW 11 15 6 8 - - 0.0
04/03:30am 11.7 - - - - SSW 11 13 6 7 - - 0.0
04/03:00am 12.2 - - - - SSW 9 13 5 7 - - 0.0
04/02:30am 13.2 - - - - SSW 15 19 8 10 - - 0.0
04/02:00am 13.5 - - - - SSW 13 17 7 9 - - 0.0
04/01:30am 14.4 - - - - SSW 15 19 8 10 - - 0.0
04/01:00am 15.2 - - - - SSW 19 28 10 15 - - 0.0
04/12:30am 15.9 - - - - SSW 22 30 12 16 - - 0.0
04/12:00am 16.8 - - - - SSW 20 28 11 15 - - 0.0
 
Date/Time
EDT
Temp
°C
App
Temp
°C
Dew
Point
Rel
Hum
%
Delta-T
°C
Wind Press
QNH
hPa
Press
MSL
hPa
Rain
since 9 am
mm
Dir
 
Spd
km/h
Gust
km/h
Spd
kts
Gust
kts
03/11:30pm 17.6 - - - - SSW 20 30 11 16 - - 0.0
03/11:00pm 18.4 - - - - SSW 15 20 8 11 - - 0.0
03/10:30pm 18.2 - - - - SW 13 19 7 10 - - 0.0
03/10:00pm 17.4 - - - - SW 7 11 4 6 - - 0.0
03/09:30pm 18.4 - - - - SSW 9 11 5 6 - - 0.0
03/09:00pm 20.0 - - - - SSW 9 13 5 7 - - 0.0
03/08:30pm 21.4 - - - - SW 11 15 6 8 - - 0.0
03/08:00pm 23.1 - - - - SW 15 19 8 10 - - 0.0
03/07:30pm 24.9 - - - - SW 17 22 9 12 - - 0.0
03/07:00pm 25.7 - - - - SW 17 24 9 13 - - 0.0
03/06:30pm 26.7 - - - - SW 15 24 8 13 - - 0.0
03/06:00pm 26.4 - - - - SW 17 26 9 14 - - 0.0
03/05:30pm 26.8 - - - - SW 17 26 9 14 - - 0.0
03/05:00pm 26.5 - - - - WSW 20 28 11 15 - - 0.0
03/04:30pm 27.2 - - - - SW 15 28 8 15 - - 0.0
03/04:00pm 26.8 - - - - WSW 19 35 10 19 - - 0.0
03/03:30pm 27.6 - - - - SW 13 22 7 12 - - 0.0
03/03:00pm 26.8 - - - - SW 13 32 7 17 - - 0.0
03/02:30pm 25.6 - - - - WSW 13 26 7 14 - - 0.0
03/02:00pm 25.3 - - - - SW 15 24 8 13 - - 0.0
03/01:30pm 24.3 - - - - WSW 13 20 7 11 - - 0.0
03/01:00pm 24.0 - - - - SW 15 22 8 12 - - 0.0
03/12:30pm 23.6 - - - - WSW 7 15 4 8 - - 0.0
03/12:00pm 22.7 - - - - SW 7 17 4 9 - - 0.0
03/11:30am 22.1 - - - - SW 7 13 4 7 - - 0.0
03/11:00am 21.1 - - - - SSW 11 19 6 10 - - 0.0
03/10:30am 20.4 - - - - SSE 11 17 6 9 - - 0.0
03/10:00am 19.9 - - - - SSE 13 20 7 11 - - 0.0
03/09:30am 18.4 - - - - SSE 17 22 9 12 - - 0.0
03/09:00am 17.4 - - - - SSE 17 22 9 12 - - 0.0
03/08:30am 16.1 - - - - SE 13 19 7 10 - - 0.0
03/08:00am 14.7 - - - - SE 11 15 6 8 - - 0.0
03/07:30am 14.7 - - - - SE 13 15 7 8 - - 0.0
03/07:00am 15.2 - - - - SE 11 15 6 8 - - 0.0
03/06:30am 15.9 - - - - SE 11 15 6 8 - - 0.0
03/06:00am 16.3 - - - - SE 13 17 7 9 - - 0.0
03/05:30am 16.6 - - - - SE 11 15 6 8 - - 0.0
03/05:00am 16.6 - - - - ESE 13 15 7 8 - - 0.0
03/04:30am 16.7 - - - - ESE 13 17 7 9 - - 0.0
03/04:00am 16.8 - - - - SE 6 7 3 4 - - 0.0
03/03:30am 16.9 - - - - SSE 6 7 3 4 - - 0.0
03/03:00am 17.1 - - - - S 11 15 6 8 - - 0.0
03/02:30am 17.3 - - - - SSW 13 15 7 8 - - 0.0
03/02:00am 17.6 - - - - SSW 11 13 6 7 - - 0.0
03/01:30am 18.1 - - - - SSE 11 13 6 7 - - 0.0
03/01:00am 18.4 - - - - SSE 11 17 6 9 - - 0.0
03/12:30am 18.9 - - - - SE 17 22 9 12 - - 0.0
03/12:00am 19.4 - - - - SE 19 24 10 13 - - 0.0
 
Date/Time
EDT
Temp
°C
App
Temp
°C
Dew
Point
Rel
Hum
%
Delta-T
°C
Wind Press
QNH
hPa
Press
MSL
hPa
Rain
since 9 am
mm
Dir
 
Spd
km/h
Gust
km/h
Spd
kts
Gust
kts
02/11:30pm 19.9 - - - - SE 17 24 9 13 - - 0.0
02/11:00pm 20.4 - - - - SE 13 26 7 14 - - 0.0
02/10:30pm 20.5 - - - - N 6 7 3 4 - - 0.0
02/10:00pm 19.7 - - - - NNE 4 6 2 3 - - 0.0
02/09:30pm 21.5 - - - - NE 4 6 2 3 - - 0.0
02/09:00pm 21.9 - - - - SE 4 9 2 5 - - 0.0
02/08:30pm 21.4 - - - - SE 7 9 4 5 - - 0.0
02/08:00pm 22.6 - - - - S 6 7 3 4 - - 0.0
02/07:30pm 24.2 - - - - SSW 2 4 1 2 - - 0.0
02/07:00pm 24.6 - - - - SW 7 9 4 5 - - 0.0
02/06:30pm 24.9 - - - - SW 6 9 3 5 - - 0.0
02/06:00pm 24.7 - - - - S 4 9 2 5 - - 0.0
02/05:30pm 25.1 - - - - SW 6 9 3 5 - - 0.0
02/05:00pm 25.5 - - - - SW 9 15 5 8 - - 0.0
02/04:30pm 25.9 - - - - SSE 6 11 3 6 - - 0.0
02/04:00pm 26.3 - - - - S 6 15 3 8 - - 0.0
02/03:30pm 24.2 - - - - S 6 11 3 6 - - 0.0
02/03:00pm 25.4 - - - - NE 4 9 2 5 - - 0.0
02/02:30pm 23.5 - - - - SSE 4 19 2 10 - - 0.0
02/02:00pm 22.6 - - - - NW 7 13 4 7 - - 0.0
02/01:30pm 22.5 - - - - ENE 2 9 1 5 - - 0.0
02/01:00pm 20.9 - - - - S 6 11 3 6 - - 0.0
02/12:30pm 20.9 - - - - SE 6 13 3 7 - - 0.0
02/12:00pm 19.8 - - - - SE 6 11 3 6 - - 0.0
02/11:30am 19.0 - - - - ENE 9 17 5 9 - - 0.0
02/11:00am 18.8 - - - - ENE 9 17 5 9 - - 0.0
02/10:30am 17.4 - - - - ENE 13 19 7 10 - - 0.0
02/10:00am 15.3 - - - - E 11 17 6 9 - - 0.0
02/09:30am 13.6 - - - - E 15 20 8 11 - - 0.0
02/09:00am 12.7 - - - - ESE 19 24 10 13 - - 0.2
02/08:30am 11.6 - - - - ESE 17 20 9 11 - - 0.2
02/08:00am 10.5 - - - - ESE 17 20 9 11 - - 0.2
02/07:30am 9.4 - - - - ESE 13 17 7 9 - - 0.2
02/07:00am 9.2 - - - - E 11 15 6 8 - - 0.2
02/06:30am 9.7 - - - - ESE 13 17 7 9 - - 0.2
02/06:00am 9.8 - - - - ESE 17 20 9 11 - - 0.2
02/05:30am 10.1 - - - - ESE 15 19 8 10 - - 0.2
02/05:00am 10.2 - - - - ESE 15 19 8 10 - - 0.2
02/04:30am 10.6 - - - - ESE 19 26 10 14 - - 0.2
02/04:00am 10.9 - - - - ESE 22 28 12 15 - - 0.2
02/03:30am 11.1 - - - - ESE 22 30 12 16 - - 0.2
02/03:00am 11.3 - - - - ESE 22 26 12 14 - - 0.2
02/02:30am 11.8 - - - - ESE 24 32 13 17 - - 0.2
02/02:00am 12.0 - - - - SE 22 30 12 16 - - 0.2
02/01:30am 12.3 - - - - ESE 20 28 11 15 - - 0.2
02/01:00am 12.9 - - - - ESE 22 28 12 15 - - 0.2
02/12:30am 13.5 - - - - SE 17 22 9 12 - - 0.2
02/12:00am 14.2 - - - - SE 19 26 10 14 - - 0.2
 
Date/Time
EDT
Temp
°C
App
Temp
°C
Dew
Point
Rel
Hum
%
Delta-T
°C
Wind Press
QNH
hPa
Press
MSL
hPa
Rain
since 9 am
mm
Dir
 
Spd
km/h
Gust
km/h
Spd
kts
Gust
kts
01/11:30pm 14.7 - - - - SE 20 26 11 14 - - 0.2
01/11:00pm 15.4 - - - - SSE 17 26 9 14 - - 0.2
01/10:30pm 15.8 - - - - SE 17 24 9 13 - - 0.2
01/10:00pm 16.6 - - - - SE 20 28 11 15 - - 0.2
01/09:30pm 17.3 - - - - SE 20 26 11 14 - - 0.2
01/09:00pm 18.2 - - - - SE 20 28 11 15 - - 0.2
01/08:30pm 19.1 - - - - SE 20 28 11 15 - - 0.2
01/08:00pm 20.6 - - - - SE 20 26 11 14 - - 0.2
01/07:30pm 22.1 - - - - S 15 20 8 11 - - 0.2
01/07:00pm 22.8 - - - - SSE 20 32 11 17 - - 0.2
01/06:30pm 23.4 - - - - S 19 28 10 15 - - 0.2
01/06:00pm 23.9 - - - - SSE 17 28 9 15 - - 0.2
01/05:30pm 23.9 - - - - S 20 32 11 17 - - 0.2
01/05:00pm 24.3 - - - - SSE 20 32 11 17 - - 0.2
01/04:30pm 23.4 - - - - S 15 30 8 16 - - 0.2
01/04:00pm 23.9 - - - - SSE 22 39 12 21 - - 0.2
01/03:30pm 23.0 - - - - S 22 33 12 18 - - 0.2
01/03:00pm 23.1 - - - - S 24 35 13 19 - - 0.2
01/02:30pm 23.5 - - - - SSW 20 32 11 17 - - 0.2
01/02:00pm - - - - - SSW 20 32 11 17 - - 0.2
01/01:30pm 21.5 - - - - S 20 28 11 15 - - 0.2
01/01:00pm 22.0 - - - - S 20 33 11 18 - - 0.0
01/12:30pm 20.1 - - - - SSW 19 24 10 13 - - 0.0
01/12:00pm - - - - - S 20 30 11 16 - - 0.0
01/11:30am 19.6 - - - - S 17 28 9 15 - - 0.0
01/11:00am 18.6 - - - - S 24 30 13 16 - - 0.0
01/10:30am 17.9 - - - - SSW 17 24 9 13 - - 0.0
01/10:00am 16.9 - - - - SSW 17 22 9 12 - - 0.0

Other Formats:

Comma delimited format used in spreadsheet applications
http://www.bom.gov.au/fwo/IDV60801/IDV60801.95835.axf

JavaScript Object Notation format (JSON) in row-major order
http://www.bom.gov.au/fwo/IDV60801/IDV60801.95835.json